Time;durP1;ratioP1;P1;durP2;ratioP2;P2;SDS_P1;SDS_P2;PMS_P1;PMS_P2;Temp;Humidity;BMP_temperature;BMP_pressure;BME280_temperature;BME280_humidity;BME280_pressure;Samples;Min_cycle;Max_cycle;Signal;HPM_P1;HPM_P2
2021/05/10 00:01:31;;;;;;;4.27;1.67;;;;;;;;;;5091790;28;20282;-60
2021/05/10 00:03:57;;;;;;;3.33;1.80;;;;;;;;;;5091691;28;20224;-60
2021/05/10 00:06:24;;;;;;;2.83;1.30;;;;;;;;;;5091964;28;20205;-59
2021/05/10 00:08:50;;;;;;;5.57;1.67;;;;;;;;;;5092008;28;20211;-59
2021/05/10 00:11:17;;;;;;;5.90;2.00;;;;;;;;;;5091740;28;20212;-57
2021/05/10 00:13:46;;;;;;;3.13;1.40;;;;;;;;;;5091667;28;20224;-59
2021/05/10 00:16:13;;;;;;;4.17;2.03;;;;;;;;;;5091798;28;20273;-59
2021/05/10 00:18:39;;;;;;;4.57;1.70;;;;;;;;;;5091658;28;20212;-59
2021/05/10 00:21:06;;;;;;;6.73;2.87;;;;;;;;;;5094100;28;20204;-60
2021/05/10 00:23:33;;;;;;;2.90;1.87;;;;;;;;;;5095452;28;20236;-59
2021/05/10 00:25:59;;;;;;;2.90;1.77;;;;;;;;;;5095610;28;20610;-58
2021/05/10 00:28:26;;;;;;;3.13;1.40;;;;;;;;;;5095483;28;20559;-59
2021/05/10 00:30:53;;;;;;;2.37;1.80;;;;;;;;;;5095137;28;20582;-60
2021/05/10 00:33:20;;;;;;;2.83;1.70;;;;;;;;;;5095723;28;20232;-58
2021/05/10 00:35:46;;;;;;;6.47;1.80;;;;;;;;;;5095446;28;20224;-60
2021/05/10 00:38:13;;;;;;;3.47;1.50;;;;;;;;;;5095214;28;20242;-60
2021/05/10 00:40:39;;;;;;;4.50;2.50;;;;;;;;;;5095168;28;20619;-59
2021/05/10 00:43:06;;;;;;;5.37;1.97;;;;;;;;;;5095084;28;20248;-59
2021/05/10 00:45:34;;;;;;;6.53;2.50;;;;;;;;;;5095124;28;20208;-58
2021/05/10 00:48:01;;;;;;;5.10;1.90;;;;;;;;;;5095294;28;20204;-59
2021/05/10 00:50:28;;;;;;;5.53;1.80;;;;;;;;;;5094877;28;20201;-59
2021/05/10 00:52:54;;;;;;;3.47;1.63;;;;;;;;;;5095054;28;20239;-59
2021/05/10 00:55:21;;;;;;;2.93;1.60;;;;;;;;;;5094890;28;20228;-60
2021/05/10 00:57:50;;;;;;;3.97;1.80;;;;;;;;;;5094988;28;20241;-59
2021/05/10 01:00:17;;;;;;;4.57;1.40;;;;;;;;;;5094489;28;20200;-59
2021/05/10 01:02:44;;;;;;;3.30;1.70;;;;;;;;;;5094958;28;20227;-60
2021/05/10 01:05:12;;;;;;;3.67;1.60;;;;;;;;;;5094665;28;20215;-59
2021/05/10 01:07:39;;;;;;;5.67;2.33;;;;;;;;;;5094751;28;20211;-58
2021/05/10 01:10:07;;;;;;;4.50;2.07;;;;;;;;;;5094545;28;20204;-58
2021/05/10 01:12:34;;;;;;;3.63;1.83;;;;;;;;;;5094371;28;20204;-58
2021/05/10 01:15:01;;;;;;;3.67;1.30;;;;;;;;;;5094506;28;20593;-58
2021/05/10 01:17:27;;;;;;;3.77;1.90;;;;;;;;;;5094546;28;20204;-59
2021/05/10 01:19:54;;;;;;;4.83;1.63;;;;;;;;;;5094441;28;20215;-60
2021/05/10 01:22:22;;;;;;;7.00;2.33;;;;;;;;;;5094383;28;20205;-59
2021/05/10 01:24:50;;;;;;;4.57;1.50;;;;;;;;;;5094521;28;20204;-58
2021/05/10 01:27:16;;;;;;;5.27;2.00;;;;;;;;;;5094141;28;20208;-60
2021/05/10 01:29:43;;;;;;;4.73;1.53;;;;;;;;;;5094721;28;20652;-60
2021/05/10 01:32:09;;;;;;;3.87;1.60;;;;;;;;;;5095763;28;20208;-59
2021/05/10 01:34:36;;;;;;;2.70;1.67;;;;;;;;;;5094579;28;20220;-58
2021/05/10 01:37:02;;;;;;;2.00;1.40;;;;;;;;;;5094269;28;20254;-57
2021/05/10 01:39:29;;;;;;;3.63;1.53;;;;;;;;;;5094214;28;20212;-58
2021/05/10 01:41:56;;;;;;;5.70;1.77;;;;;;;;;;5093925;28;20215;-60
2021/05/10 01:44:23;;;;;;;4.00;1.73;;;;;;;;;;5094449;28;20228;-60
2021/05/10 01:46:50;;;;;;;3.77;1.80;;;;;;;;;;5094463;28;20204;-59
2021/05/10 01:49:16;;;;;;;6.13;2.07;;;;;;;;;;5093980;28;20238;-59
2021/05/10 01:51:43;;;;;;;3.80;1.70;;;;;;;;;;5093743;28;20208;-60
2021/05/10 01:54:09;;;;;;;3.53;1.77;;;;;;;;;;5093815;28;20232;-60
2021/05/10 01:56:36;;;;;;;6.50;2.20;;;;;;;;;;5093830;28;20216;-60
2021/05/10 01:59:04;;;;;;;2.97;1.50;;;;;;;;;;5093812;28;20235;-59
2021/05/10 02:01:31;;;;;;;4.47;1.40;;;;;;;;;;5093546;28;20246;-60
2021/05/10 02:04:00;;;;;;;5.50;1.73;;;;;;;;;;5093769;28;20224;-60
2021/05/10 02:06:26;;;;;;;4.73;1.60;;;;;;;;;;5093504;28;20207;-60
2021/05/10 02:08:53;;;;;;;2.80;1.37;;;;;;;;;;5093472;28;20216;-59
2021/05/10 02:11:19;;;;;;;4.93;1.60;;;;;;;;;;5093189;28;20741;-60
2021/05/10 02:13:46;;;;;;;3.67;1.53;;;;;;;;;;5093554;28;20271;-59
2021/05/10 02:16:14;;;;;;;4.40;1.50;;;;;;;;;;5093494;28;20243;-60
2021/05/10 02:18:40;;;;;;;5.53;1.80;;;;;;;;;;5093450;28;20208;-59
2021/05/10 02:21:07;;;;;;;4.70;1.70;;;;;;;;;;5093145;28;20208;-59
2021/05/10 02:23:35;;;;;;;3.07;1.47;;;;;;;;;;5093103;28;20224;-60
2021/05/10 02:26:03;;;;;;;3.03;1.33;;;;;;;;;;5093489;28;20227;-59
2021/05/10 02:28:30;;;;;;;7.87;1.73;;;;;;;;;;5093164;28;20208;-59
2021/05/10 02:30:58;;;;;;;1.73;1.27;;;;;;;;;;5093063;28;20215;-58
2021/05/10 02:33:26;;;;;;;6.43;1.50;;;;;;;;;;5093042;28;20235;-59
2021/05/10 02:35:53;;;;;;;3.83;1.53;;;;;;;;;;5093007;28;20224;-59
2021/05/10 02:38:20;;;;;;;2.03;1.50;;;;;;;;;;5093195;28;20208;-59
2021/05/10 02:40:48;;;;;;;5.60;1.63;;;;;;;;;;5092915;28;20209;-59
2021/05/10 02:43:15;;;;;;;4.83;1.50;;;;;;;;;;5092161;28;20227;-58
2021/05/10 02:45:41;;;;;;;4.37;1.50;;;;;;;;;;5092881;28;20201;-61
2021/05/10 02:48:08;;;;;;;3.13;1.97;;;;;;;;;;5092848;28;20208;-58
2021/05/10 02:50:36;;;;;;;4.33;1.40;;;;;;;;;;5092594;28;20204;-58
2021/05/10 02:53:02;;;;;;;4.00;1.47;;;;;;;;;;5093050;28;20282;-59
2021/05/10 02:55:29;;;;;;;2.33;1.40;;;;;;;;;;5092704;28;20220;-59
2021/05/10 02:57:56;;;;;;;4.10;1.73;;;;;;;;;;5092493;28;20215;-60
2021/05/10 03:00:23;;;;;;;9.50;1.60;;;;;;;;;;5092481;28;20211;-60
2021/05/10 03:02:50;;;;;;;7.50;2.27;;;;;;;;;;5092382;28;20228;-59
2021/05/10 03:05:17;;;;;;;2.70;1.60;;;;;;;;;;5092318;28;20215;-60
2021/05/10 03:07:45;;;;;;;3.83;1.60;;;;;;;;;;5092547;28;20258;-58
2021/05/10 03:10:13;;;;;;;2.30;1.50;;;;;;;;;;5092395;28;20568;-60
2021/05/10 03:12:40;;;;;;;5.50;1.57;;;;;;;;;;5092173;28;20209;-59
2021/05/10 03:15:08;;;;;;;4.27;1.70;;;;;;;;;;5092343;28;20215;-60
2021/05/10 03:17:35;;;;;;;6.47;1.70;;;;;;;;;;5092115;28;20211;-59
2021/05/10 03:20:04;;;;;;;2.80;1.30;;;;;;;;;;5092204;28;20212;-59
2021/05/10 03:22:30;;;;;;;2.67;1.40;;;;;;;;;;5092273;28;20586;-59
2021/05/10 03:24:57;;;;;;;3.00;1.57;;;;;;;;;;5092201;28;20204;-59
2021/05/10 03:27:24;;;;;;;5.00;1.70;;;;;;;;;;5092120;28;20253;-59
2021/05/10 03:29:51;;;;;;;4.53;1.60;;;;;;;;;;5091890;28;20211;-60
2021/05/10 03:32:17;;;;;;;2.37;1.37;;;;;;;;;;5092215;28;20200;-60
2021/05/10 03:34:44;;;;;;;2.00;1.60;;;;;;;;;;5091958;28;20235;-60
2021/05/10 03:37:10;;;;;;;2.17;1.40;;;;;;;;;;5091892;28;20224;-59
2021/05/10 03:39:37;;;;;;;3.90;1.90;;;;;;;;;;5092044;28;20265;-61
2021/05/10 03:42:05;;;;;;;2.43;1.53;;;;;;;;;;5091652;28;20208;-59
2021/05/10 03:44:32;;;;;;;2.43;1.50;;;;;;;;;;5091839;28;20285;-59
2021/05/10 03:46:58;;;;;;;3.23;1.43;;;;;;;;;;5091658;28;20201;-59
2021/05/10 03:49:25;;;;;;;3.07;1.63;;;;;;;;;;5091961;28;20216;-59
2021/05/10 03:51:51;;;;;;;3.60;1.43;;;;;;;;;;5091765;28;20208;-59
2021/05/10 03:54:18;;;;;;;2.70;1.70;;;;;;;;;;5091924;28;20220;-60
2021/05/10 03:56:44;;;;;;;5.30;1.70;;;;;;;;;;5095227;28;20227;-59
2021/05/10 03:59:12;;;;;;;2.00;1.60;;;;;;;;;;5095961;28;20214;-59
2021/05/10 04:01:38;;;;;;;3.70;1.40;;;;;;;;;;5095647;28;20344;-59
2021/05/10 04:04:13;;;;;;;4.57;1.87;;;;;;;;;;5096005;28;20644;-58
2021/05/10 04:06:51;;;;;;;3.97;1.30;;;;;;;;;;5095765;28;20286;-59
2021/05/10 04:14:38;;;;;;;4.50;1.60;;;;;;;;;;5082065;28;20302;-60
2021/05/10 04:17:05;;;;;;;3.63;1.50;;;;;;;;;;5075397;28;20267;-58
2021/05/10 04:19:31;;;;;;;2.57;1.40;;;;;;;;;;5080098;28;20197;-58
2021/05/10 04:21:58;;;;;;;2.40;1.23;;;;;;;;;;5095422;28;20211;-59
2021/05/10 04:24:25;;;;;;;2.80;1.60;;;;;;;;;;5093772;28;20224;-65
2021/05/10 04:26:52;;;;;;;3.47;1.63;;;;;;;;;;5091209;28;20225;-64
2021/05/10 04:29:18;;;;;;;3.63;1.60;;;;;;;;;;5094653;28;20200;-64
2021/05/10 04:31:45;;;;;;;3.17;1.70;;;;;;;;;;5095406;28;20577;-64
2021/05/10 04:34:12;;;;;;;4.00;1.50;;;;;;;;;;5094990;28;20719;-64
2021/05/10 04:36:39;;;;;;;4.83;2.00;;;;;;;;;;5095210;28;20273;-64
2021/05/10 04:39:05;;;;;;;3.00;1.73;;;;;;;;;;5094615;28;20212;-63
2021/05/10 04:41:32;;;;;;;3.23;1.87;;;;;;;;;;5095198;28;20219;-63
2021/05/10 04:43:58;;;;;;;3.87;2.00;;;;;;;;;;5094882;28;20350;-63
2021/05/10 04:46:25;;;;;;;3.13;1.73;;;;;;;;;;5094948;28;20574;-62
2021/05/10 04:48:52;;;;;;;6.00;1.83;;;;;;;;;;5095089;28;20228;-62
2021/05/10 04:51:19;;;;;;;4.03;1.70;;;;;;;;;;5094776;28;20200;-62
2021/05/10 04:53:45;;;;;;;3.30;1.63;;;;;;;;;;5094734;28;20221;-63
2021/05/10 04:56:12;;;;;;;2.33;1.60;;;;;;;;;;5094778;28;20228;-63
2021/05/10 04:58:38;;;;;;;3.67;1.60;;;;;;;;;;5094755;28;20698;-63
2021/05/10 05:01:05;;;;;;;5.13;1.50;;;;;;;;;;5094874;28;20207;-62
2021/05/10 05:03:31;;;;;;;5.20;1.80;;;;;;;;;;5094603;28;20220;-63
2021/05/10 05:05:58;;;;;;;5.13;1.80;;;;;;;;;;5093846;28;20201;-63
2021/05/10 05:08:25;;;;;;;2.77;1.60;;;;;;;;;;5095217;28;20208;-63
2021/05/10 05:10:51;;;;;;;4.40;1.70;;;;;;;;;;5094877;28;20744;-64
2021/05/10 05:13:22;;;;;;;6.37;1.93;;;;;;;;;;5093987;28;20269;-69
2021/05/10 05:15:48;;;;;;;5.07;2.00;;;;;;;;;;5094398;28;20224;-67
2021/05/10 05:18:15;;;;;;;3.70;1.63;;;;;;;;;;5094599;28;20204;-70
2021/05/10 05:20:42;;;;;;;5.60;1.60;;;;;;;;;;5093367;28;20204;-69
2021/05/10 05:23:22;;;;;;;2.80;1.67;;;;;;;;;;5073288;28;20233;-69
2021/05/10 05:25:53;;;;;;;2.73;1.60;;;;;;;;;;5074194;28;20236;-64
2021/05/10 05:28:20;;;;;;;4.87;1.60;;;;;;;;;;5073722;28;20665;-69
2021/05/10 05:30:47;;;;;;;3.17;1.37;;;;;;;;;;5073553;28;20274;-68
2021/05/10 05:33:13;;;;;;;3.40;1.70;;;;;;;;;;5072917;28;20235;-67
2021/05/10 05:35:40;;;;;;;3.53;1.60;;;;;;;;;;5073471;28;20235;-63
2021/05/10 05:38:09;;;;;;;7.83;1.70;;;;;;;;;;5073595;28;20212;-63
2021/05/10 05:40:36;;;;;;;5.10;1.67;;;;;;;;;;5073468;28;20205;-64
2021/05/10 05:43:03;;;;;;;5.23;1.70;;;;;;;;;;5072994;28;20256;-64
2021/05/10 05:45:30;;;;;;;3.40;1.57;;;;;;;;;;5084193;28;20212;-63
2021/05/10 05:47:56;;;;;;;5.47;1.63;;;;;;;;;;5093410;28;20277;-67
2021/05/10 05:50:23;;;;;;;5.23;1.70;;;;;;;;;;5093587;28;20212;-67
2021/05/10 05:52:49;;;;;;;4.90;1.80;;;;;;;;;;5093464;28;20228;-64
2021/05/10 05:55:16;;;;;;;2.87;1.53;;;;;;;;;;5093465;28;20250;-64
2021/05/10 05:57:44;;;;;;;3.37;1.77;;;;;;;;;;5093408;28;20232;-64
2021/05/10 06:00:12;;;;;;;2.43;1.80;;;;;;;;;;5093129;28;20253;-64
2021/05/10 06:02:40;;;;;;;3.17;1.60;;;;;;;;;;5093251;28;20215;-63
2021/05/10 06:05:07;;;;;;;3.73;1.70;;;;;;;;;;5093058;28;20619;-72
2021/05/10 06:07:38;;;;;;;4.07;1.77;;;;;;;;;;5093440;28;20200;-70
2021/05/10 06:10:05;;;;;;;9.83;1.53;;;;;;;;;;5092850;28;20668;-66
2021/05/10 06:12:32;;;;;;;6.13;1.80;;;;;;;;;;5092841;28;20204;-66
2021/05/10 06:14:59;;;;;;;5.27;1.97;;;;;;;;;;5092773;28;20300;-68
2021/05/10 06:17:26;;;;;;;3.43;1.63;;;;;;;;;;5092457;28;20269;-65
2021/05/10 06:19:53;;;;;;;5.80;1.77;;;;;;;;;;5092733;28;20211;-64
2021/05/10 06:22:19;;;;;;;7.23;1.87;;;;;;;;;;5092724;28;20204;-65
2021/05/10 06:24:46;;;;;;;4.10;1.87;;;;;;;;;;5092788;28;20224;-64
2021/05/10 06:27:12;;;;;;;5.23;1.63;;;;;;;;;;5092369;28;20684;-64
2021/05/10 06:29:39;;;;;;;3.23;2.03;;;;;;;;;;5092746;28;20732;-64
2021/05/10 06:32:06;;;;;;;2.93;2.00;;;;;;;;;;5092505;28;20215;-67
2021/05/10 06:34:33;;;;;;;2.70;1.90;;;;;;;;;;5092575;28;20256;-67
2021/05/10 06:36:59;;;;;;;6.77;1.80;;;;;;;;;;5092448;28;20231;-67
2021/05/10 06:39:26;;;;;;;5.50;1.93;;;;;;;;;;5092672;28;20297;-68
2021/05/10 06:41:52;;;;;;;2.37;1.90;;;;;;;;;;5091937;28;20207;-66
2021/05/10 06:44:19;;;;;;;3.17;1.63;;;;;;;;;;5092751;28;20600;-67
2021/05/10 06:46:46;;;;;;;5.17;1.83;;;;;;;;;;5092556;28;20639;-64
2021/05/10 06:49:13;;;;;;;7.43;1.83;;;;;;;;;;5092447;28;20213;-68
2021/05/10 06:51:39;;;;;;;4.27;1.80;;;;;;;;;;5092286;28;20208;-64
2021/05/10 06:54:06;;;;;;;6.17;1.90;;;;;;;;;;5092215;28;20682;-68
2021/05/10 06:56:32;;;;;;;4.27;1.90;;;;;;;;;;5091987;28;20231;-65
2021/05/10 06:58:59;;;;;;;7.73;2.37;;;;;;;;;;5092572;28;20205;-67
2021/05/10 07:01:26;;;;;;;3.93;2.00;;;;;;;;;;5091980;28;20223;-65
2021/05/10 07:03:52;;;;;;;2.60;1.63;;;;;;;;;;5092046;28;20254;-63
2021/05/10 07:06:21;;;;;;;3.77;1.90;;;;;;;;;;5091899;28;20204;-64
2021/05/10 07:08:47;;;;;;;4.87;2.00;;;;;;;;;;5092021;28;20208;-64
2021/05/10 07:11:14;;;;;;;4.37;1.97;;;;;;;;;;5091522;28;20208;-65
2021/05/10 07:13:40;;;;;;;3.57;1.60;;;;;;;;;;5091936;28;20228;-65
2021/05/10 07:16:07;;;;;;;4.83;1.77;;;;;;;;;;5092038;28;20220;-64
2021/05/10 07:18:34;;;;;;;7.20;2.10;;;;;;;;;;5091775;28;20215;-65
2021/05/10 07:21:01;;;;;;;3.60;1.97;;;;;;;;;;5091595;28;20208;-64
2021/05/10 07:23:28;;;;;;;3.37;1.60;;;;;;;;;;5091485;28;20224;-65
2021/05/10 07:25:55;;;;;;;5.27;2.00;;;;;;;;;;5092178;28;20260;-67
2021/05/10 07:28:22;;;;;;;5.57;2.10;;;;;;;;;;5091884;28;20229;-63
2021/05/10 07:30:49;;;;;;;4.13;1.50;;;;;;;;;;5091570;28;20211;-63
2021/05/10 07:33:16;;;;;;;2.57;1.80;;;;;;;;;;5091893;28;20246;-64
2021/05/10 07:35:42;;;;;;;5.87;2.07;;;;;;;;;;5091921;28;20260;-64
2021/05/10 07:38:09;;;;;;;5.63;1.67;;;;;;;;;;5092072;28;20255;-64
2021/05/10 07:40:37;;;;;;;4.30;1.60;;;;;;;;;;5092724;28;20204;-67
2021/05/10 07:43:03;;;;;;;2.63;1.70;;;;;;;;;;5091350;28;20274;-64
2021/05/10 07:45:30;;;;;;;2.00;1.30;;;;;;;;;;5091677;28;20208;-64
2021/05/10 07:47:57;;;;;;;3.40;1.50;;;;;;;;;;5091817;28;20200;-69
2021/05/10 07:50:24;;;;;;;3.77;1.70;;;;;;;;;;5091471;28;20237;-67
2021/05/10 07:52:50;;;;;;;3.47;1.40;;;;;;;;;;5091088;28;20235;-63
2021/05/10 07:55:17;;;;;;;4.30;1.37;;;;;;;;;;5091801;28;20266;-63
2021/05/10 07:57:45;;;;;;;4.63;1.10;;;;;;;;;;5091665;28;20228;-64
2021/05/10 08:00:15;;;;;;;2.83;1.10;;;;;;;;;;5091536;28;20688;-64
2021/05/10 08:02:42;;;;;;;4.27;1.00;;;;;;;;;;5091166;28;20283;-64
2021/05/10 08:05:09;;;;;;;4.00;1.20;;;;;;;;;;5091321;28;20208;-63
2021/05/10 08:07:36;;;;;;;3.00;1.10;;;;;;;;;;5091533;28;20208;-64
2021/05/10 08:10:03;;;;;;;1.80;1.13;;;;;;;;;;5091317;28;20208;-64
2021/05/10 08:12:29;;;;;;;2.43;1.23;;;;;;;;;;5091128;28;20215;-65
2021/05/10 08:14:57;;;;;;;3.27;1.30;;;;;;;;;;5091373;28;20209;-65
2021/05/10 08:17:24;;;;;;;2.43;1.00;;;;;;;;;;5091469;28;20224;-65
2021/05/10 08:19:51;;;;;;;1.93;1.07;;;;;;;;;;5090106;28;20573;-65
2021/05/10 08:22:17;;;;;;;3.07;1.30;;;;;;;;;;5091305;28;20208;-64
2021/05/10 08:24:44;;;;;;;4.60;1.20;;;;;;;;;;5091437;28;20229;-63
2021/05/10 08:27:10;;;;;;;3.50;1.50;;;;;;;;;;5091394;28;20200;-64
2021/05/10 08:29:37;;;;;;;3.40;1.20;;;;;;;;;;5091408;28;20209;-67
2021/05/10 08:32:04;;;;;;;4.03;1.33;;;;;;;;;;5091246;28;20582;-67
2021/05/10 08:34:31;;;;;;;3.63;1.50;;;;;;;;;;5091191;28;20277;-66
2021/05/10 08:36:57;;;;;;;2.03;1.50;;;;;;;;;;5091348;28;20220;-67
2021/05/10 08:39:24;;;;;;;6.37;2.00;;;;;;;;;;5091363;28;20665;-66
2021/05/10 08:41:51;;;;;;;5.53;1.40;;;;;;;;;;5092434;28;20200;-64
2021/05/10 08:44:19;;;;;;;7.20;1.47;;;;;;;;;;5094947;28;20227;-66
2021/05/10 08:46:45;;;;;;;3.00;1.50;;;;;;;;;;5095216;28;20624;-67
2021/05/10 08:49:18;;;;;;;2.77;1.13;;;;;;;;;;5096794;28;20583;-66
2021/05/10 08:51:44;;;;;;;1.37;0.90;;;;;;;;;;5099947;28;20207;-67
2021/05/10 08:54:18;;;;;;;4.43;1.10;;;;;;;;;;5096156;28;20236;-69
2021/05/10 08:56:44;;;;;;;1.43;1.10;;;;;;;;;;5094908;28;20274;-66
2021/05/10 08:59:11;;;;;;;3.37;1.00;;;;;;;;;;5095209;28;20219;-66
2021/05/10 09:01:47;;;;;;;5.80;1.00;;;;;;;;;;5095039;28;20200;-65
2021/05/10 09:04:15;;;;;;;2.07;0.93;;;;;;;;;;5095344;28;20223;-64
2021/05/10 09:06:42;;;;;;;2.30;0.80;;;;;;;;;;5095020;28;20202;-66
2021/05/10 09:09:10;;;;;;;4.13;1.10;;;;;;;;;;5094799;28;20204;-68
2021/05/10 09:11:36;;;;;;;3.47;0.90;;;;;;;;;;5094178;28;20208;-69
2021/05/10 09:14:03;;;;;;;1.87;1.13;;;;;;;;;;5100313;22;20237;-64
2021/05/10 09:16:35;;;;;;;2.80;1.00;;;;;;;;;;5053867;28;20229;-65
2021/05/10 09:19:01;;;;;;;4.10;1.00;;;;;;;;;;5054286;28;20217;-63
2021/05/10 09:21:29;;;;;;;6.43;1.60;;;;;;;;;;5053672;28;20271;-66
2021/05/10 09:23:57;;;;;;;1.93;1.10;;;;;;;;;;5053842;28;20230;-64
2021/05/10 09:26:30;;;;;;;1.70;0.97;;;;;;;;;;5053713;28;20202;-65
2021/05/10 09:28:56;;;;;;;3.73;1.23;;;;;;;;;;5053760;28;20209;-65
2021/05/10 09:31:23;;;;;;;2.73;0.80;;;;;;;;;;5053311;28;20586;-66
2021/05/10 09:33:50;;;;;;;2.07;1.07;;;;;;;;;;5053511;28;20225;-66
2021/05/10 09:39:09;;;;;;;2.20;0.80;;;;;;;;;;5109160;27;20527;-62
2021/05/10 09:41:36;;;;;;;4.27;0.70;;;;;;;;;;5108987;28;20203;-64
2021/05/10 09:44:05;;;;;;;4.63;0.90;;;;;;;;;;5109319;28;20223;-64
2021/05/10 09:46:39;;;;;;;2.70;0.70;;;;;;;;;;5109357;28;20207;-64
2021/05/10 09:49:05;;;;;;;1.93;0.60;;;;;;;;;;5109356;28;20204;-64
2021/05/10 09:51:32;;;;;;;2.43;0.80;;;;;;;;;;5108487;28;20324;-63
2021/05/10 09:53:58;;;;;;;0.90;0.70;;;;;;;;;;5109130;28;20231;-66
2021/05/10 09:56:28;;;;;;;4.43;0.80;;;;;;;;;;5109107;28;20614;-65
2021/05/10 09:58:56;;;;;;;1.17;0.63;;;;;;;;;;5109454;28;20266;-67
2021/05/10 10:01:23;;;;;;;3.27;0.70;;;;;;;;;;5108771;28;20212;-64
2021/05/10 10:03:50;;;;;;;2.67;0.73;;;;;;;;;;5109051;28;20235;-66
2021/05/10 10:06:17;;;;;;;4.03;0.90;;;;;;;;;;5109835;28;20218;-66
2021/05/10 10:08:44;;;;;;;2.33;0.70;;;;;;;;;;5109445;28;20196;-63
2021/05/10 10:11:12;;;;;;;2.50;0.60;;;;;;;;;;5108727;28;20230;-66
2021/05/10 10:13:39;;;;;;;2.13;0.60;;;;;;;;;;5108544;28;20228;-65
2021/05/10 10:16:07;;;;;;;1.93;0.63;;;;;;;;;;5109080;28;20207;-65
2021/05/10 10:18:36;;;;;;;1.47;0.60;;;;;;;;;;5108580;28;20588;-64
2021/05/10 10:21:03;;;;;;;1.57;0.70;;;;;;;;;;5109372;28;20687;-65
2021/05/10 10:23:30;;;;;;;1.43;0.60;;;;;;;;;;5108964;28;20220;-66
2021/05/10 10:25:57;;;;;;;1.10;0.63;;;;;;;;;;5109023;28;20560;-64
2021/05/10 10:28:24;;;;;;;2.73;0.60;;;;;;;;;;5108641;28;20265;-65
2021/05/10 10:30:57;;;;;;;1.10;0.50;;;;;;;;;;5108243;28;20204;-63
2021/05/10 10:33:27;;;;;;;2.07;0.60;;;;;;;;;;5108119;28;20224;-62
2021/05/10 10:35:54;;;;;;;3.60;0.70;;;;;;;;;;5108441;28;20598;-61
2021/05/10 10:38:27;;;;;;;7.23;0.60;;;;;;;;;;5108236;28;20613;-61
2021/05/10 10:41:13;;;;;;;4.47;1.30;;;;;;;;;;5107933;28;20264;-61
2021/05/10 10:43:39;;;;;;;0.97;0.60;;;;;;;;;;5107752;28;20227;-62
2021/05/10 10:46:21;;;;;;;2.77;0.70;;;;;;;;;;5108202;28;20219;-65
2021/05/10 10:48:49;;;;;;;2.20;0.60;;;;;;;;;;5102148;28;20235;-64
2021/05/10 10:51:16;;;;;;;1.73;0.60;;;;;;;;;;5094199;28;20212;-64
2021/05/10 10:53:43;;;;;;;0.83;0.50;;;;;;;;;;5094366;28;20593;-65
2021/05/10 10:56:09;;;;;;;0.90;0.70;;;;;;;;;;5094286;28;20204;-65
2021/05/10 10:58:37;;;;;;;0.90;0.60;;;;;;;;;;5094209;28;20274;-66
2021/05/10 11:01:06;;;;;;;3.73;0.50;;;;;;;;;;5094212;28;20204;-64
2021/05/10 11:03:34;;;;;;;0.60;0.50;;;;;;;;;;5094279;28;20647;-64
2021/05/10 11:06:01;;;;;;;2.80;0.80;;;;;;;;;;5094329;28;20209;-64
2021/05/10 11:08:43;;;;;;;1.23;0.70;;;;;;;;;;5094191;28;20200;-65
2021/05/10 11:11:09;;;;;;;1.70;0.63;;;;;;;;;;5093708;28;20207;-64
2021/05/10 11:13:37;;;;;;;0.90;0.50;;;;;;;;;;5094170;28;20579;-65
2021/05/10 11:16:05;;;;;;;2.30;0.60;;;;;;;;;;5093957;28;20204;-65
2021/05/10 11:18:36;;;;;;;1.67;0.70;;;;;;;;;;5093996;28;20232;-66
2021/05/10 11:21:03;;;;;;;1.53;0.70;;;;;;;;;;5093365;28;20555;-67
2021/05/10 11:23:31;;;;;;;1.30;0.60;;;;;;;;;;5093823;28;20568;-66
2021/05/10 11:25:58;;;;;;;1.97;0.70;;;;;;;;;;5093926;28;20204;-67
2021/05/10 11:28:41;;;;;;;1.53;0.70;;;;;;;;;;5094004;28;20200;-67
2021/05/10 11:31:10;;;;;;;0.77;0.60;;;;;;;;;;5093523;28;20243;-64
2021/05/10 11:34:00;;;;;;;2.40;0.60;;;;;;;;;;5093191;28;20318;-64
2021/05/10 11:36:28;;;;;;;1.90;0.80;;;;;;;;;;5093699;28;20665;-65
2021/05/10 11:38:55;;;;;;;2.57;0.80;;;;;;;;;;5093381;28;20311;-65
2021/05/10 11:41:27;;;;;;;1.00;0.90;;;;;;;;;;5093417;28;20250;-66
2021/05/10 11:43:57;;;;;;;7.60;1.50;;;;;;;;;;5093357;28;20273;-66
2021/05/10 11:46:37;;;;;;;0.80;0.70;;;;;;;;;;5093731;28;20212;-67
2021/05/10 11:49:10;;;;;;;0.70;0.70;;;;;;;;;;5094101;28;20192;-68
2021/05/10 11:51:38;;;;;;;2.47;0.70;;;;;;;;;;5093229;28;20212;-68
2021/05/10 11:54:06;;;;;;;1.57;0.93;;;;;;;;;;5093292;28;20598;-66
2021/05/10 11:56:38;;;;;;;3.77;0.80;;;;;;;;;;5093274;28;20299;-67
2021/05/10 11:59:11;;;;;;;3.40;1.40;;;;;;;;;;5093347;28;20644;-66
2021/05/10 12:01:39;;;;;;;4.40;0.97;;;;;;;;;;5091490;28;20208;-64
2021/05/10 12:04:19;;;;;;;3.63;1.13;;;;;;;;;;5093181;28;20228;-64
2021/05/10 12:06:46;;;;;;;1.73;0.90;;;;;;;;;;5093048;28;20207;-64
2021/05/10 12:09:32;;;;;;;5.80;1.03;;;;;;;;;;5093291;28;20200;-64
2021/05/10 12:11:58;;;;;;;1.50;0.70;;;;;;;;;;5092627;28;20208;-66
2021/05/10 12:14:25;;;;;;;3.27;0.97;;;;;;;;;;5092976;28;20251;-66
2021/05/10 12:17:02;;;;;;;5.73;1.30;;;;;;;;;;5093018;28;20216;-67
2021/05/10 12:19:43;;;;;;;1.30;0.80;;;;;;;;;;5072221;28;20268;-67
2021/05/10 12:22:11;;;;;;;1.47;1.00;;;;;;;;;;5072068;28;20205;-63
2021/05/10 12:24:52;;;;;;;2.67;1.10;;;;;;;;;;5072651;28;20648;-65
2021/05/10 12:27:18;;;;;;;2.47;0.90;;;;;;;;;;5072417;28;20201;-65
2021/05/10 12:29:45;;;;;;;4.07;1.10;;;;;;;;;;5072040;28;20212;-66
2021/05/10 12:32:12;;;;;;;1.70;0.80;;;;;;;;;;5081406;28;20250;-66
2021/05/10 12:34:38;;;;;;;1.57;0.90;;;;;;;;;;5093821;28;20278;-70
2021/05/10 12:37:05;;;;;;;1.13;0.93;;;;;;;;;;5092689;28;20219;-65
2021/05/10 12:39:33;;;;;;;0.83;0.73;;;;;;;;;;5092771;28;20212;-67
2021/05/10 12:42:11;;;;;;;1.67;1.17;;;;;;;;;;5092146;28;20205;-64
2021/05/10 12:44:38;;;;;;;1.60;0.93;;;;;;;;;;5093667;28;20877;-65
2021/05/10 12:47:04;;;;;;;2.13;0.90;;;;;;;;;;5093358;28;20204;-65
2021/05/10 12:49:31;;;;;;;2.20;0.97;;;;;;;;;;5092810;28;20204;-67
2021/05/10 12:51:57;;;;;;;4.80;1.30;;;;;;;;;;5091792;28;20215;-65
2021/05/10 12:54:24;;;;;;;1.53;1.00;;;;;;;;;;5092365;28;20228;-66
2021/05/10 12:56:52;;;;;;;1.07;0.90;;;;;;;;;;5092009;28;20211;-66
2021/05/10 12:59:18;;;;;;;2.40;1.00;;;;;;;;;;5092168;28;20228;-64
2021/05/10 13:01:47;;;;;;;2.77;1.43;;;;;;;;;;5091968;28;20262;-63
2021/05/10 13:04:20;;;;;;;8.27;2.00;;;;;;;;;;5091885;28;20224;-67
2021/05/10 13:06:53;;;;;;;4.73;1.83;;;;;;;;;;5092686;28;20200;-66
2021/05/10 13:09:23;;;;;;;3.40;1.67;;;;;;;;;;5091911;28;20233;-65
2021/05/10 13:11:53;;;;;;;3.43;2.30;;;;;;;;;;5091957;28;20208;-69
2021/05/10 13:14:24;;;;;;;5.40;2.13;;;;;;;;;;5091803;28;20227;-66
2021/05/10 13:16:59;;;;;;;3.73;2.03;;;;;;;;;;5092016;28;20680;-66
2021/05/10 13:19:51;;;;;;;4.27;2.00;;;;;;;;;;5091940;28;20726;-67
2021/05/10 13:31:30;;;;;;;5.20;2.00;;;;;;;;;;5073944;28;20574;-68
2021/05/10 13:34:06;;;;;;;3.10;1.60;;;;;;;;;;5091768;28;20236;-69
2021/05/10 13:36:35;;;;;;;4.43;1.80;;;;;;;;;;5091344;28;20208;-69
2021/05/10 13:39:25;;;;;;;4.53;1.70;;;;;;;;;;5091665;28;20235;-70
2021/05/10 13:41:55;;;;;;;3.17;1.77;;;;;;;;;;5091250;28;20216;-68
2021/05/10 13:44:22;;;;;;;2.57;1.40;;;;;;;;;;5091430;28;20224;-69
2021/05/10 13:46:50;;;;;;;2.97;1.50;;;;;;;;;;5090226;28;20664;-64
2021/05/10 13:49:16;;;;;;;3.93;1.43;;;;;;;;;;5091393;28;20695;-65
2021/05/10 13:51:44;;;;;;;2.40;1.40;;;;;;;;;;5091399;28;20665;-64
2021/05/10 13:54:10;;;;;;;3.70;1.67;;;;;;;;;;5091445;28;20318;-64
2021/05/10 13:56:37;;;;;;;1.80;1.40;;;;;;;;;;5091707;28;20582;-65
2021/05/10 13:59:04;;;;;;;3.40;1.50;;;;;;;;;;5091657;28;20302;-65
2021/05/10 14:01:31;;;;;;;2.50;1.23;;;;;;;;;;5091136;28;20207;-64
2021/05/10 14:03:59;;;;;;;1.63;1.30;;;;;;;;;;5091248;28;20228;-65
2021/05/10 14:06:25;;;;;;;3.03;1.33;;;;;;;;;;5091410;28;20200;-64
2021/05/10 14:08:52;;;;;;;1.97;1.30;;;;;;;;;;5091506;28;20253;-66
2021/05/10 14:11:19;;;;;;;3.40;1.63;;;;;;;;;;5091039;28;20211;-65
2021/05/10 14:13:45;;;;;;;1.83;1.20;;;;;;;;;;5091018;28;20283;-65
2021/05/10 14:16:13;;;;;;;2.87;1.30;;;;;;;;;;5091363;28;20563;-64
2021/05/10 14:18:44;;;;;;;1.97;0.80;;;;;;;;;;5091142;28;20322;-64
2021/05/10 14:23:56;;;;;;;2.30;1.23;;;;;;;;;;5091553;28;20223;-64
2021/05/10 14:26:23;;;;;;;3.30;1.20;;;;;;;;;;5095463;28;20208;-64
2021/05/10 14:28:49;;;;;;;2.00;1.03;;;;;;;;;;5094801;28;20265;-64
2021/05/10 14:31:16;;;;;;;2.57;1.03;;;;;;;;;;5095113;28;20212;-63
2021/05/10 14:33:43;;;;;;;2.40;1.20;;;;;;;;;;5094778;28;20247;-64
2021/05/10 14:36:10;;;;;;;2.23;0.70;;;;;;;;;;5095081;28;20257;-64
2021/05/10 14:38:37;;;;;;;1.80;0.80;;;;;;;;;;5094876;28;20270;-64
2021/05/10 14:41:04;;;;;;;2.93;0.90;;;;;;;;;;5094469;28;20203;-69
2021/05/10 14:43:31;;;;;;;3.03;1.00;;;;;;;;;;5094381;28;20696;-65
2021/05/10 14:45:58;;;;;;;3.93;0.97;;;;;;;;;;5094697;28;20704;-64
2021/05/10 14:48:24;;;;;;;2.17;0.97;;;;;;;;;;5094923;28;20204;-65
2021/05/10 14:50:52;;;;;;;1.33;0.80;;;;;;;;;;5094656;28;20204;-65
2021/05/10 14:53:19;;;;;;;1.53;0.90;;;;;;;;;;5094068;28;20735;-66
2021/05/10 14:55:46;;;;;;;1.13;0.83;;;;;;;;;;5094358;28;20211;-66
2021/05/10 14:58:13;;;;;;;2.27;0.83;;;;;;;;;;5094543;28;20224;-69
2021/05/10 15:00:40;;;;;;;3.50;1.10;;;;;;;;;;5094372;28;20211;-64
2021/05/10 15:03:06;;;;;;;1.97;1.03;;;;;;;;;;5093877;28;20232;-63
2021/05/10 15:05:33;;;;;;;2.03;0.80;;;;;;;;;;5094489;28;20215;-63
2021/05/10 15:07:59;;;;;;;3.37;0.73;;;;;;;;;;5094469;28;20875;-63